createdAt,value
2018-04-14T00:01:50.935Z,99386.44
2018-04-14T00:04:24.611Z,99389.72
2018-04-14T00:06:57.976Z,99388.84
2018-04-14T00:09:31.184Z,99389.78
2018-04-14T00:12:04.801Z,99396.48
2018-04-14T00:14:38.029Z,99391.16
2018-04-14T00:17:11.455Z,99393.16
2018-04-14T00:19:44.859Z,99394.72
2018-04-14T00:22:19.351Z,99406.97
2018-04-14T00:24:53.375Z,99407.41
2018-04-14T00:27:27.441Z,99410.63
2018-04-14T00:30:01.388Z,99412.47
2018-04-14T00:32:34.607Z,99415.59
2018-04-14T00:35:08.151Z,99434.17
2018-04-14T00:37:41.325Z,99429.91
2018-04-14T00:40:14.898Z,99426.41
2018-04-14T00:42:48.634Z,99427.42
2018-04-14T00:45:22.020Z,99432.28
2018-04-14T00:47:56.633Z,99438.48
2018-04-14T00:50:30.506Z,99438.06
2018-04-14T00:53:12.887Z,99444.94
2018-04-14T00:55:46.196Z,99449.08
2018-04-14T00:58:19.813Z,99447.34
2018-04-14T01:00:53.515Z,99450.12
2018-04-14T01:03:27.004Z,99446.02
2018-04-14T01:06:00.684Z,99443.22
2018-04-14T01:08:34.915Z,99446.96
2018-04-14T01:11:08.324Z,99458.75
2018-04-14T01:13:41.767Z,99451.55
2018-04-14T01:16:15.412Z,99462.30
2018-04-14T01:18:48.591Z,99470.70
2018-04-14T01:21:21.824Z,99469.20
2018-04-14T01:23:55.610Z,99468.17
2018-04-14T01:26:29.073Z,99486.45
2018-04-14T01:29:02.326Z,99484.59
2018-04-14T01:31:36.255Z,99488.39
2018-04-14T01:34:09.960Z,99498.05
2018-04-14T01:36:43.180Z,99497.89
2018-04-14T01:39:17.879Z,99502.75
2018-04-14T01:41:51.351Z,99506.20
2018-04-14T01:44:24.661Z,99504.92
2018-04-14T01:46:58.699Z,99508.88
2018-04-14T01:49:31.884Z,99510.09
2018-04-14T01:52:05.039Z,99518.59
2018-04-14T01:54:39.465Z,99523.76
2018-04-14T01:57:12.691Z,99522.99
2018-04-14T01:59:46.123Z,99530.52
2018-04-14T02:02:19.686Z,99523.91
2018-04-14T02:04:53.004Z,99533.66
2018-04-14T02:07:27.588Z,99525.06
2018-04-14T02:10:01.039Z,99525.23
2018-04-14T02:12:35.412Z,99534.73
2018-04-14T02:15:08.898Z,99538.66
2018-04-14T02:17:42.787Z,99541.49
2018-04-14T02:20:16.230Z,99541.96
2018-04-14T02:22:49.473Z,99548.97
2018-04-14T02:25:22.858Z,99545.59
2018-04-14T02:27:56.228Z,99539.78
2018-04-14T02:30:29.585Z,99536.94
2018-04-14T02:33:03.221Z,99540.33
2018-04-14T02:35:36.455Z,99551.85
2018-04-14T02:38:09.982Z,99555.23
2018-04-14T02:40:43.444Z,99552.59
2018-04-14T02:43:16.736Z,99554.97
2018-04-14T02:45:50.087Z,99559.84
2018-04-14T02:48:23.998Z,99557.47
2018-04-14T02:50:57.187Z,99565.20
2018-04-14T02:53:30.761Z,99564.93
2018-04-14T02:56:04.609Z,99565.78
2018-04-14T02:58:37.919Z,99569.34
2018-04-14T03:01:11.125Z,99573.05
2018-04-14T03:03:44.730Z,99580.31
2018-04-14T03:06:18.339Z,99582.84
2018-04-14T03:08:51.591Z,99580.66
2018-04-14T03:11:24.920Z,99585.92
2018-04-14T03:13:58.250Z,99591.88
2018-04-14T03:16:31.933Z,99592.13
2018-04-14T03:19:05.511Z,99588.80
2018-04-14T03:21:39.106Z,99595.94
2018-04-14T03:24:12.405Z,99589.80
2018-04-14T03:26:46.015Z,99608.45
2018-04-14T03:29:19.300Z,99600.41
2018-04-14T03:31:52.664Z,99602.23
2018-04-14T03:34:26.438Z,99611.72
2018-04-14T03:36:59.641Z,99612.09
2018-04-14T03:39:33.610Z,99597.27
2018-04-14T03:42:07.857Z,99605.58
2018-04-14T03:44:41.599Z,99606.08
2018-04-14T03:47:15.015Z,99603.58
2018-04-14T03:49:49.082Z,99606.59
2018-04-14T03:52:24.601Z,99614.48
2018-04-14T03:54:58.450Z,99619.19
2018-04-14T03:57:32.017Z,99620.07
2018-04-14T04:00:05.530Z,99626.05
2018-04-14T04:02:39.403Z,99624.44
2018-04-14T04:05:13.472Z,99628.34
2018-04-14T04:07:46.803Z,99633.61
2018-04-14T04:10:19.978Z,99635.42
2018-04-14T04:12:54.059Z,99639.50
2018-04-14T04:15:27.452Z,99639.45
2018-04-14T04:18:01.016Z,99640.09
2018-04-14T04:20:43.452Z,99647.59
2018-04-14T04:25:26.408Z,99650.82
2018-04-14T04:28:00.255Z,99663.38
2018-04-14T04:30:33.789Z,99672.62
2018-04-14T04:33:07.151Z,99667.62
2018-04-14T04:35:40.261Z,99670.92
2018-04-14T04:38:13.276Z,99674.36
2018-04-14T04:40:46.253Z,99683.98
2018-04-14T04:43:19.688Z,99686.02
2018-04-14T04:45:52.637Z,99690.65
2018-04-14T04:48:26.126Z,99686.95
2018-04-14T04:50:59.435Z,99694.08
2018-04-14T04:53:32.557Z,99697.05
2018-04-14T04:56:05.701Z,99698.19
2018-04-14T04:58:39.421Z,99701.48
2018-04-14T05:01:12.595Z,99701.36
2018-04-14T05:03:45.843Z,99704.98
2018-04-14T05:06:19.326Z,99706.25
2018-04-14T05:08:52.467Z,99710.63
2018-04-14T05:11:26.098Z,99713.42
2018-04-14T05:13:59.164Z,99719.91
2018-04-14T05:16:34.363Z,99724.50
2018-04-14T05:19:09.691Z,99723.66
2018-04-14T05:21:44.798Z,99731.33
2018-04-14T05:24:18.160Z,99730.36
2018-04-14T05:26:51.577Z,99737.41
2018-04-14T05:29:25.036Z,99737.78
2018-04-14T05:31:59.803Z,99748.52
2018-04-14T05:34:34.492Z,99738.29
2018-04-14T05:37:08.720Z,99747.58
2018-04-14T05:39:43.073Z,99749.63
2018-04-14T05:42:17.271Z,99750.26
2018-04-14T05:44:50.656Z,99757.52
2018-04-14T05:47:24.045Z,99764.19
2018-04-14T05:49:57.542Z,99764.94
2018-04-14T05:52:30.805Z,99766.22
2018-04-14T05:55:03.774Z,99767.46
2018-04-14T05:57:38.332Z,99773.84
2018-04-14T06:00:12.061Z,99776.91
2018-04-14T06:02:50.907Z,99775.80
2018-04-14T06:05:23.943Z,99777.08
2018-04-14T06:07:58.483Z,99784.21
2018-04-14T06:10:33.957Z,99783.75
2018-04-14T06:13:07.603Z,99795.95
2018-04-14T06:15:40.760Z,99802.23
2018-04-14T06:18:15.195Z,99798.16
2018-04-14T06:20:48.484Z,99815.81
2018-04-14T06:23:21.521Z,99810.97
2018-04-14T06:25:54.868Z,99816.61
2018-04-14T06:28:28.508Z,99822.69
2018-04-14T06:31:01.734Z,99813.60
2018-04-14T06:33:35.236Z,99817.87
2018-04-14T06:36:08.455Z,99819.98
2018-04-14T06:38:41.501Z,99819.23
2018-04-14T06:41:14.905Z,99828.86
2018-04-14T06:43:48.289Z,99832.49
2018-04-14T06:46:21.893Z,99825.73
2018-04-14T06:48:59.168Z,99833.14
2018-04-14T06:51:39.097Z,99825.63
2018-04-14T06:54:13.330Z,99830.95
2018-04-14T06:56:46.695Z,99828.56
2018-04-14T06:59:19.737Z,99834.65
2018-04-14T07:01:53.211Z,99833.14
2018-04-14T07:04:27.216Z,99830.50
2018-04-14T07:07:00.859Z,99830.66
2018-04-14T07:09:34.394Z,99832.16
2018-04-14T07:12:08.516Z,99834.42
2018-04-14T07:14:42.745Z,99839.48
2018-04-14T07:17:15.866Z,99832.39
2018-04-14T07:19:49.053Z,99828.34
2018-04-14T07:22:22.911Z,99834.11
2018-04-14T07:24:56.324Z,99834.48
2018-04-14T07:27:29.885Z,99826.75
2018-04-14T07:30:03.758Z,99842.80
2018-04-14T07:32:37.307Z,99843.80
2018-04-14T07:35:10.696Z,99845.34
2018-04-14T07:37:43.991Z,99842.14
2018-04-14T07:40:17.497Z,99847.66
2018-04-14T07:42:50.536Z,99850.22
2018-04-14T07:45:23.909Z,99853.73
2018-04-14T07:49:25.878Z,99845.00
2018-04-14T07:51:59.110Z,99847.51
2018-04-14T07:54:32.644Z,99845.34
2018-04-14T07:57:05.813Z,99840.98
2018-04-14T07:59:39.707Z,99840.40
2018-04-14T08:02:12.783Z,99852.98
2018-04-14T08:04:46.232Z,99848.25
2018-04-14T08:07:20.163Z,99848.20
2018-04-14T08:09:53.718Z,99852.38
2018-04-14T08:12:26.759Z,99852.70
2018-04-14T08:15:00.486Z,99855.92
2018-04-14T08:17:33.828Z,99860.81
2018-04-14T08:20:09.092Z,99844.86
2018-04-14T08:22:42.824Z,99864.78
2018-04-14T08:25:16.342Z,99865.64
2018-04-14T08:27:49.744Z,99865.78
2018-04-14T08:30:28.338Z,99869.27
2018-04-14T08:33:04.891Z,99866.69
2018-04-14T08:35:38.467Z,99860.55
2018-04-14T08:38:11.649Z,99861.31
2018-04-14T08:40:45.025Z,99870.58
2018-04-14T08:43:18.100Z,99875.39
2018-04-14T08:47:21.221Z,99869.89
2018-04-14T08:49:54.989Z,99870.95
2018-04-14T08:52:30.031Z,99871.81
2018-04-14T08:55:03.015Z,99866.17
2018-04-14T08:57:36.915Z,99869.95
2018-04-14T09:00:10.850Z,99872.11
2018-04-14T09:02:44.371Z,99866.55
2018-04-14T09:05:17.866Z,99871.45
2018-04-14T09:07:52.163Z,99870.33
2018-04-14T09:10:25.215Z,99867.73
2018-04-14T09:12:58.452Z,99875.95
2018-04-14T09:15:34.556Z,99868.59
2018-04-14T09:18:09.444Z,99867.14
2018-04-14T09:20:48.890Z,99873.16
2018-04-14T09:23:24.511Z,99863.56
2018-04-14T09:25:58.321Z,99859.94
2018-04-14T09:28:33.180Z,99846.68
2018-04-14T09:31:06.783Z,99855.21
2018-04-14T09:33:40.103Z,99863.70
2018-04-14T09:36:13.999Z,99858.01
2018-04-14T09:38:47.275Z,99860.85
2018-04-14T09:41:20.592Z,99840.98
2018-04-14T09:43:54.371Z,99847.90
2018-04-14T09:46:29.003Z,99861.84
2018-04-14T09:49:07.754Z,99865.92
2018-04-14T09:51:41.140Z,99859.23
2018-04-14T09:54:14.961Z,99866.11
2018-04-14T09:56:49.642Z,99861.76
2018-04-14T09:59:24.131Z,99858.58
2018-04-14T10:02:01.919Z,99863.94
2018-04-14T10:04:35.861Z,99862.38
2018-04-14T10:07:09.532Z,99863.60
2018-04-14T10:09:42.925Z,99866.71
2018-04-14T10:12:18.912Z,99869.03
2018-04-14T10:14:53.568Z,99872.63
2018-04-14T10:17:31.200Z,99865.81
2018-04-14T10:20:05.266Z,99877.91
2018-04-14T10:22:39.653Z,99884.75
2018-04-14T10:26:42.381Z,99881.89
2018-04-14T10:29:15.839Z,99880.05
2018-04-14T10:31:49.326Z,99887.53
2018-04-14T10:34:23.197Z,99891.30
2018-04-14T10:36:56.870Z,99896.11
2018-04-14T10:39:30.525Z,99891.78
2018-04-14T10:42:05.093Z,99885.25
2018-04-14T10:47:17.465Z,99896.22
2018-04-14T10:49:54.658Z,99899.48
2018-04-14T10:52:29.175Z,99891.63
2018-04-14T10:55:03.040Z,99883.45
2018-04-14T10:57:36.800Z,99885.14
2018-04-14T11:00:10.187Z,99879.38
2018-04-14T11:02:44.220Z,99883.16
2018-04-14T11:05:17.496Z,99882.84
2018-04-14T11:07:51.011Z,99885.84
2018-04-14T11:10:25.826Z,99880.63
2018-04-14T11:12:59.978Z,99873.73
2018-04-14T11:15:34.359Z,99869.70
2018-04-14T11:18:08.024Z,99870.55
2018-04-14T11:20:41.500Z,99878.52
2018-04-14T11:23:15.013Z,99884.30
2018-04-14T11:25:49.035Z,99880.73
2018-04-14T11:28:22.316Z,99881.36
2018-04-14T11:30:55.856Z,99876.28
2018-04-14T11:33:30.075Z,99886.97
2018-04-14T11:36:03.676Z,99880.02
2018-04-14T11:41:19.464Z,99897.28
2018-04-14T11:43:53.142Z,99879.64
2018-04-14T11:46:29.872Z,99891.05
2018-04-14T11:49:03.289Z,99885.13
2018-04-14T11:51:36.714Z,99892.38
2018-04-14T11:54:12.514Z,99898.28
2018-04-14T11:56:47.961Z,99886.85
2018-04-14T11:59:21.334Z,99895.59
2018-04-14T12:01:54.877Z,99883.85
2018-04-14T12:04:28.821Z,99880.46
2018-04-14T12:07:02.343Z,99886.64
2018-04-14T12:09:37.926Z,99898.72
2018-04-14T12:12:12.790Z,99901.73
2018-04-14T12:14:46.406Z,99895.89
2018-04-14T12:17:20.002Z,99893.28
2018-04-14T12:19:54.923Z,99895.17
2018-04-14T12:22:28.592Z,99885.14
2018-04-14T12:25:03.570Z,99885.88
2018-04-14T12:27:38.033Z,99882.39
2018-04-14T12:30:13.420Z,99894.16
2018-04-14T12:32:47.461Z,99891.53
2018-04-14T12:35:20.836Z,99890.36
2018-04-14T12:37:59.786Z,99879.27
2018-04-14T12:40:34.263Z,99882.91
2018-04-14T12:43:11.634Z,99888.70
2018-04-14T12:45:55.247Z,99889.33
2018-04-14T12:48:30.419Z,99882.27
2018-04-14T12:51:03.986Z,99879.43
2018-04-14T12:53:37.673Z,99876.62
2018-04-14T12:56:11.083Z,99884.91
2018-04-14T12:58:44.424Z,99880.01
2018-04-14T13:01:19.559Z,99885.27
2018-04-14T13:03:52.737Z,99882.98
2018-04-14T13:06:27.319Z,99883.88
2018-04-14T13:09:36.219Z,99883.47
2018-04-14T13:12:09.933Z,99881.80
2018-04-14T13:14:43.508Z,99873.17
2018-04-14T13:17:32.043Z,99874.33
2018-04-14T13:20:12.823Z,99881.11
2018-04-14T13:23:05.865Z,99878.62
2018-04-14T13:25:49.578Z,99874.49
2018-04-14T13:28:23.308Z,99871.42
2018-04-14T13:30:57.079Z,99875.92
2018-04-14T13:33:32.354Z,99870.75
2018-04-14T13:36:06.511Z,99873.51
2018-04-14T13:38:40.139Z,99879.95
2018-04-14T13:41:14.200Z,99869.84
2018-04-14T13:43:48.225Z,99875.35
2018-04-14T13:46:21.890Z,99868.81
2018-04-14T13:48:56.681Z,99876.65
2018-04-14T13:51:35.383Z,99874.86
2018-04-14T13:54:10.751Z,99861.25
2018-04-14T13:56:44.952Z,99865.98
2018-04-14T13:59:19.435Z,99864.20
2018-04-14T14:01:54.734Z,99870.20
2018-04-14T14:04:32.065Z,99870.19
2018-04-14T14:07:07.799Z,99861.20
2018-04-14T14:12:06.793Z,99866.02
2018-04-14T14:14:40.367Z,99862.93
2018-04-14T14:17:13.877Z,99858.09
2018-04-14T14:19:52.965Z,99852.09
2018-04-14T14:22:29.722Z,99846.58
2018-04-14T14:25:03.616Z,99843.02
2018-04-14T14:27:36.904Z,99842.83
2018-04-14T14:30:10.872Z,99850.84
2018-04-14T14:32:44.252Z,99840.47
2018-04-14T14:35:17.630Z,99851.53
2018-04-14T14:37:52.315Z,99852.30
2018-04-14T14:40:26.027Z,99849.04
2018-04-14T14:42:59.618Z,99847.36
2018-04-14T14:45:35.379Z,99845.56
2018-04-14T14:48:10.406Z,99848.97
2018-04-14T14:50:44.074Z,99851.17
2018-04-14T14:53:17.344Z,99847.45
2018-04-14T14:55:56.783Z,99854.78
2018-04-14T14:58:31.931Z,99845.42
2018-04-14T15:01:05.395Z,99849.39
2018-04-14T15:03:39.330Z,99847.56
2018-04-14T15:06:16.429Z,99837.21
2018-04-14T15:08:50.289Z,99845.78
2018-04-14T15:11:24.480Z,99832.09
2018-04-14T15:14:02.049Z,99843.32
2018-04-14T15:16:36.648Z,99840.34
2018-04-14T15:19:11.666Z,99850.66
2018-04-14T15:21:46.610Z,99845.70
2018-04-14T15:24:20.847Z,99847.03
2018-04-14T15:26:54.470Z,99846.19
2018-04-14T15:29:28.484Z,99843.05
2018-04-14T15:32:02.211Z,99848.25
2018-04-14T15:34:36.064Z,99844.99
2018-04-14T15:37:09.412Z,99848.43
2018-04-14T15:39:42.953Z,99848.14
2018-04-14T15:42:18.526Z,99844.39
2018-04-14T15:44:53.796Z,99843.97
2018-04-14T15:47:28.899Z,99847.23
2018-04-14T15:50:05.298Z,99843.57
2018-04-14T15:52:44.552Z,99844.20
2018-04-14T15:55:19.369Z,99845.89
2018-04-14T15:57:53.087Z,99848.16
2018-04-14T16:00:26.422Z,99849.85
2018-04-14T16:03:00.107Z,99847.78
2018-04-14T16:05:33.470Z,99847.66
2018-04-14T16:08:07.146Z,99850.03
2018-04-14T16:10:42.164Z,99848.41
2018-04-14T16:13:15.652Z,99840.52
2018-04-14T16:15:49.450Z,99843.48
2018-04-14T16:18:23.354Z,99831.46
2018-04-14T16:20:56.634Z,99834.82
2018-04-14T16:26:10.561Z,99833.97
2018-04-14T16:34:49.686Z,99822.86
2018-04-14T16:39:04.114Z,99822.47
2018-04-14T16:41:38.026Z,99809.56
2018-04-14T16:44:11.728Z,99810.20
2018-04-14T16:46:48.836Z,99809.05
2018-04-14T16:49:24.937Z,99812.30
2018-04-14T16:51:58.854Z,99809.00
2018-04-14T16:54:32.504Z,99803.61
2018-04-14T16:57:07.941Z,99804.78
2018-04-14T16:59:42.779Z,99807.16
2018-04-14T17:02:21.774Z,99807.00
2018-04-14T17:04:57.572Z,99808.33
2018-04-14T17:07:39.812Z,99802.79
2018-04-14T17:10:14.801Z,99806.95
2018-04-14T17:12:55.466Z,99808.80
2018-04-14T17:15:33.211Z,99808.63
2018-04-14T17:18:10.300Z,99805.36
2018-04-14T17:20:44.194Z,99808.48
2018-04-14T17:23:18.148Z,99805.42
2018-04-14T17:25:53.196Z,99803.05
2018-04-14T17:28:36.565Z,99808.35
2018-04-14T17:31:18.474Z,99823.52
2018-04-14T17:33:56.220Z,99816.19
2018-04-14T17:36:34.555Z,99820.47
2018-04-14T17:39:14.572Z,99824.41
2018-04-14T17:41:48.903Z,99827.38
2018-04-14T17:44:29.878Z,99826.64
2018-04-14T17:47:04.724Z,99826.72
2018-04-14T17:49:38.603Z,99823.38
2018-04-14T17:52:13.913Z,99822.27
2018-04-14T17:54:47.482Z,99822.83
2018-04-14T17:57:22.326Z,99835.48
2018-04-14T18:00:23.491Z,99828.84
2018-04-14T18:02:58.464Z,99834.80
2018-04-14T18:05:32.573Z,99839.28
2018-04-14T18:08:08.100Z,99838.17
2018-04-14T18:10:41.817Z,99838.66
2018-04-14T18:13:17.729Z,99837.17
2018-04-14T18:15:52.803Z,99844.45
2018-04-14T18:18:27.173Z,99844.49
2018-04-14T18:21:01.349Z,99842.15
2018-04-14T18:23:38.252Z,99848.80
2018-04-14T18:26:17.216Z,99852.52
2018-04-14T18:28:58.305Z,99852.70
2018-04-14T18:31:43.564Z,99859.26
2018-04-14T18:34:23.042Z,99861.48
2018-04-14T18:36:59.518Z,99860.86
2018-04-14T18:39:34.026Z,99861.66
2018-04-14T18:42:10.577Z,99860.52
2018-04-14T18:44:44.516Z,99861.30
2018-04-14T18:47:18.057Z,99855.97
2018-04-14T18:49:51.658Z,99863.37
2018-04-14T18:52:26.718Z,99859.69
2018-04-14T18:55:02.155Z,99873.49
2018-04-14T18:57:35.780Z,99872.83
2018-04-14T19:00:10.126Z,99882.48
2018-04-14T19:02:50.625Z,99882.29
2018-04-14T19:05:25.854Z,99886.31
2018-04-14T19:07:59.619Z,99887.99
2018-04-14T19:10:34.720Z,99887.60
2018-04-14T19:13:08.035Z,99889.34
2018-04-14T19:15:41.889Z,99888.00
2018-04-14T19:18:15.290Z,99898.48
2018-04-14T19:20:48.679Z,99892.31
2018-04-14T19:23:22.305Z,99892.54
2018-04-14T19:25:55.899Z,99892.97
2018-04-14T19:28:29.595Z,99889.72
2018-04-14T19:31:03.672Z,99890.91
2018-04-14T19:33:37.052Z,99894.12
2018-04-14T19:36:10.613Z,99899.67
2018-04-14T19:38:45.181Z,99897.08
2018-04-14T19:41:19.267Z,99892.53
2018-04-14T19:43:52.713Z,99898.99
2018-04-14T19:46:27.107Z,99884.97
2018-04-14T19:49:04.677Z,99890.23
2018-04-14T19:51:40.797Z,99886.78
2018-04-14T19:54:14.622Z,99889.17
2018-04-14T19:56:57.875Z,99888.92
2018-04-14T19:59:32.300Z,99876.19
2018-04-14T20:02:09.041Z,99889.98
2018-04-14T20:04:43.365Z,99891.14
2018-04-14T20:07:17.012Z,99894.54
2018-04-14T20:09:51.502Z,99900.61
2018-04-14T20:12:25.472Z,99896.14
2018-04-14T20:17:36.187Z,99899.97
2018-04-14T20:20:11.412Z,99894.39
2018-04-14T20:22:45.376Z,99889.92
2018-04-14T20:25:22.326Z,99888.44
2018-04-14T20:27:57.929Z,99892.92
2018-04-14T20:30:32.070Z,99892.63
2018-04-14T20:33:06.090Z,99894.63
2018-04-14T20:37:09.074Z,99891.91
2018-04-14T20:39:45.220Z,99893.92
2018-04-14T20:42:18.856Z,99897.48
2018-04-14T20:45:04.932Z,99894.87
2018-04-14T20:47:41.047Z,99889.39
2018-04-14T20:50:15.252Z,99892.78
2018-04-14T20:52:48.932Z,99895.72
2018-04-14T20:55:24.181Z,99894.36
2018-04-14T20:57:57.966Z,99889.52
2018-04-14T21:00:31.203Z,99881.44
2018-04-14T21:03:04.493Z,99876.80
2018-04-14T21:05:37.896Z,99874.84
2018-04-14T21:08:11.248Z,99869.12
2018-04-14T21:10:47.281Z,99874.90
2018-04-14T21:13:21.054Z,99891.02
2018-04-14T21:15:56.383Z,99886.52
2018-04-14T21:18:36.248Z,99885.26
2018-04-14T21:21:09.530Z,99879.22
2018-04-14T21:23:43.080Z,99885.28
2018-04-14T21:26:16.526Z,99883.73
2018-04-14T21:28:50.167Z,99884.56
2018-04-14T21:31:23.614Z,99881.31
2018-04-14T21:34:00.595Z,99876.78
2018-04-14T21:36:34.352Z,99879.93
2018-04-14T21:39:09.563Z,99879.56
2018-04-14T21:41:44.971Z,99876.30
2018-04-14T21:44:21.797Z,99878.12
2018-04-14T21:47:07.369Z,99881.10
2018-04-14T21:49:41.368Z,99878.48
2018-04-14T21:52:14.779Z,99877.67
2018-04-14T21:54:48.093Z,99871.22
2018-04-14T21:57:21.922Z,99873.13
2018-04-14T21:59:55.202Z,99869.89
2018-04-14T22:02:28.619Z,99872.25
2018-04-14T22:05:03.198Z,99876.77
2018-04-14T22:07:36.558Z,99879.17
2018-04-14T22:10:10.384Z,99877.59
2018-04-14T22:12:44.052Z,99875.69
2018-04-14T22:15:17.419Z,99874.53
2018-04-14T22:17:50.687Z,99875.58
2018-04-14T22:20:24.623Z,99877.23
2018-04-14T22:22:57.985Z,99869.63
2018-04-14T22:25:32.703Z,99870.82
2018-04-14T22:28:06.765Z,99874.48
2018-04-14T22:30:40.033Z,99870.85
2018-04-14T22:33:13.960Z,99861.97
2018-04-14T22:35:48.692Z,99859.55
2018-04-14T22:38:23.748Z,99856.69
2018-04-14T22:40:57.090Z,99861.97
2018-04-14T22:43:30.916Z,99855.43
2018-04-14T22:46:04.344Z,99857.48
2018-04-14T22:48:37.574Z,99854.13
2018-04-14T22:51:14.226Z,99848.80
2018-04-14T22:53:48.596Z,99851.06
2018-04-14T22:56:22.111Z,99857.51
2018-04-14T22:58:55.576Z,99855.39
2018-04-14T23:01:29.170Z,99856.11
2018-04-14T23:04:06.068Z,99854.53
2018-04-14T23:06:41.518Z,99852.67
2018-04-14T23:09:17.399Z,99852.91
2018-04-14T23:11:51.370Z,99852.41
2018-04-14T23:14:24.808Z,99846.19
2018-04-14T23:16:58.081Z,99840.41
2018-04-14T23:19:31.946Z,99835.60
2018-04-14T23:22:05.695Z,99829.31
2018-04-14T23:24:38.849Z,99830.63
2018-04-14T23:27:12.377Z,99830.31
2018-04-14T23:29:46.389Z,99824.45
2018-04-14T23:32:19.651Z,99821.28
2018-04-14T23:34:53.129Z,99824.05
2018-04-14T23:37:26.840Z,99818.19
2018-04-14T23:40:00.172Z,99812.02
2018-04-14T23:42:34.820Z,99810.16
2018-04-14T23:45:08.150Z,99811.07
2018-04-14T23:47:41.427Z,99804.92
2018-04-14T23:50:14.974Z,99804.11
2018-04-14T23:52:48.167Z,99798.09
2018-04-14T23:55:22.269Z,99797.31
2018-04-14T23:57:55.913Z,99798.00
